Time;durP1;ratioP1;P1;durP2;ratioP2;P2;SDS_P1;SDS_P2;PMS_P1;PMS_P2;Temp;Humidity;BMP_temperature;BMP_pressure;BME280_temperature;BME280_humidity;BME280_pressure;Samples;Min_cycle;Max_cycle;Signal;HPM_P1;HPM_P2
2022/11/29 00:01:52;;;;;;;2.88;1.50;;;;;;;20.89;47.90;95086.69;4990286;28;20030;-60
2022/11/29 00:04:18;;;;;;;2.10;1.50;;;;;;;21.00;47.95;95104.50;4987015;28;20898;-62
2022/11/29 00:06:43;;;;;;;3.83;1.88;;;;;;;21.00;47.77;95103.72;4979278;28;20038;-62
2022/11/29 00:09:11;;;;;;;2.30;1.52;;;;;;;19.82;47.97;94975.38;4987561;28;20426;-60
2022/11/29 00:14:21;;;;;;;3.50;1.83;;;;;;;20.92;47.94;95096.56;4977795;28;20087;-60
2022/11/29 00:16:51;;;;;;;2.60;1.80;;;;;;;20.84;47.83;95082.00;4971218;28;20817;-60
2022/11/29 00:19:16;;;;;;;2.10;1.30;;;;;;;20.96;47.83;95102.50;4987107;28;20060;-61
2022/11/29 00:21:42;;;;;;;2.28;1.52;;;;;;;20.96;47.99;95106.69;4973726;28;20441;-60
2022/11/29 00:24:08;;;;;;;2.15;1.40;;;;;;;20.98;47.84;95106.97;4970384;28;21040;-62
2022/11/29 00:26:35;;;;;;;1.92;1.38;;;;;;;19.88;47.77;94947.09;4972194;28;20097;-61
2022/11/29 00:29:01;;;;;;;1.90;1.30;;;;;;;20.90;47.89;95107.91;4972871;28;20675;-60
2022/11/29 00:31:31;;;;;;;2.40;1.60;;;;;;;20.86;48.02;95099.28;4989422;28;20139;-60
2022/11/29 00:33:58;;;;;;;1.95;1.50;;;;;;;20.94;47.84;95115.81;4979762;28;20045;-61
2022/11/29 00:36:24;;;;;;;1.95;1.23;;;;;;;20.75;48.09;95079.53;4973785;28;20046;-60
2022/11/29 00:38:49;;;;;;;3.10;1.60;;;;;;;20.93;47.91;95136.06;4987119;28;20085;-63
2022/11/29 00:41:15;;;;;;;2.15;1.40;;;;;;;20.95;47.79;95106.44;4990065;28;20463;-62
2022/11/29 00:43:40;;;;;;;1.92;1.23;;;;;;;20.91;47.95;95105.94;5007763;28;20033;-62
2022/11/29 00:46:06;;;;;;;2.42;1.45;;;;;;;20.85;47.59;95108.66;5006434;28;20123;-60
2022/11/29 00:48:31;;;;;;;2.70;1.63;;;;;;;20.89;47.66;95109.16;5006595;28;20052;-61
2022/11/29 00:50:57;;;;;;;2.00;1.40;;;;;;;20.82;47.89;95098.03;4989274;28;20057;-61
2022/11/29 00:53:22;;;;;;;2.17;1.60;;;;;;;20.75;47.62;95098.53;4969647;28;20048;-60
2022/11/29 00:55:48;;;;;;;1.92;1.30;;;;;;;20.18;47.57;95008.56;4986599;28;20026;-60
2022/11/29 00:58:14;;;;;;;1.90;1.35;;;;;;;20.87;47.70;95116.31;4955660;28;20138;-60
2022/11/29 01:00:39;;;;;;;2.33;1.58;;;;;;;20.69;47.99;95090.34;4987393;28;20088;-61
2022/11/29 01:03:04;;;;;;;1.85;1.23;;;;;;;20.74;47.98;95086.16;4985704;28;20096;-60
2022/11/29 01:05:30;;;;;;;1.85;1.38;;;;;;;20.87;47.48;95110.88;4987679;28;20041;-60
2022/11/29 01:07:56;;;;;;;2.40;1.25;;;;;;;20.79;47.65;95099.00;5004496;28;20084;-60
2022/11/29 01:10:21;;;;;;;1.60;1.20;;;;;;;20.87;47.62;95094.59;4973250;28;20081;-60
2022/11/29 01:12:47;;;;;;;3.13;1.40;;;;;;;20.86;47.75;95098.53;4990075;28;20600;-61
2022/11/29 01:15:12;;;;;;;2.38;1.58;;;;;;;20.85;47.70;95097.03;5007948;28;20518;-60
2022/11/29 01:17:38;;;;;;;2.28;1.58;;;;;;;20.83;47.92;95096.81;4986414;28;20038;-61
2022/11/29 01:20:07;;;;;;;2.25;1.20;;;;;;;20.83;47.73;95099.50;4986493;28;20053;-61
2022/11/29 01:22:33;;;;;;;2.10;1.30;;;;;;;20.84;47.58;95095.59;4970386;28;20068;-60
2022/11/29 01:24:58;;;;;;;1.95;1.30;;;;;;;20.75;47.54;95098.53;4982669;28;20041;-61
2022/11/29 01:27:24;;;;;;;2.50;1.60;;;;;;;20.83;47.39;95094.09;4988460;28;20510;-60
2022/11/29 01:29:49;;;;;;;2.42;1.30;;;;;;;20.82;47.36;95087.16;5005367;28;20764;-61
2022/11/29 01:32:15;;;;;;;2.03;1.40;;;;;;;20.80;47.58;95084.22;5004965;28;20379;-61
2022/11/29 01:34:40;;;;;;;1.90;1.30;;;;;;;20.83;47.55;95088.66;4957227;28;20037;-62
2022/11/29 01:37:06;;;;;;;1.60;1.10;;;;;;;20.82;47.20;95092.59;4982855;28;20043;-61
2022/11/29 01:39:31;;;;;;;2.40;1.35;;;;;;;20.74;47.38;95072.59;5005898;28;20050;-62
2022/11/29 01:41:57;;;;;;;2.45;1.73;;;;;;;20.00;47.50;94957.50;4985441;28;20116;-60
2022/11/29 01:44:22;;;;;;;1.73;1.25;;;;;;;20.85;47.37;95086.19;4968908;28;20545;-60
2022/11/29 01:46:47;;;;;;;2.10;1.50;;;;;;;20.46;47.14;95020.22;5002565;28;20502;-60
2022/11/29 01:49:31;;;;;;;2.00;1.33;;;;;;;20.73;47.25;95062.97;4964417;28;20058;-59
2022/11/29 01:52:02;;;;;;;1.90;1.20;;;;;;;20.77;47.23;95074.34;4970116;28;20786;-60
2022/11/29 01:54:28;;;;;;;2.20;1.48;;;;;;;20.79;47.39;95071.88;4988400;28;20973;-60
2022/11/29 01:56:54;;;;;;;1.83;1.20;;;;;;;20.76;47.52;95072.84;4972003;28;20141;-60
2022/11/29 01:59:24;;;;;;;2.22;1.23;;;;;;;20.63;47.09;95053.56;4987876;28;20034;-61
2022/11/29 02:01:50;;;;;;;1.67;1.20;;;;;;;20.73;47.42;95090.09;4956750;28;20034;-60
2022/11/29 02:04:15;;;;;;;1.80;1.08;;;;;;;20.61;47.18;95045.16;4968838;28;20518;-60
2022/11/29 02:06:41;;;;;;;1.95;1.38;;;;;;;20.68;47.35;95093.56;4984115;28;20071;-60
2022/11/29 02:09:20;;;;;;;2.25;1.27;;;;;;;20.76;47.16;95067.41;4968828;28;20053;-61
2022/11/29 02:11:49;;;;;;;1.45;0.90;;;;;;;20.78;46.96;95075.81;5004888;28;20070;-62
2022/11/29 02:14:39;;;;;;;2.05;1.20;;;;;;;20.79;47.30;95061.00;4987015;28;20040;-62
2022/11/29 02:17:13;;;;;;;2.17;1.20;;;;;;;20.79;47.11;95061.00;4990342;28;20025;-61
2022/11/29 02:20:00;;;;;;;2.15;1.20;;;;;;;20.76;47.15;95057.31;5005159;28;20049;-61
2022/11/29 02:22:30;;;;;;;1.92;1.13;;;;;;;20.75;46.98;95057.81;5003786;28;20052;-62
2022/11/29 02:25:20;;;;;;;1.58;0.90;;;;;;;20.72;47.16;95061.50;4982623;28;20046;-61
2022/11/29 02:28:06;;;;;;;;;;;;;;;20.73;47.10;95062.97;4979512;28;20054;-61
2022/11/29 02:30:31;;;;;;;1.55;0.95;;;;;;;20.74;47.22;95059.75;4980520;28;19921;-60
2022/11/29 02:33:30;;;;;;;1.52;1.13;;;;;;;20.75;47.01;95060.53;5005076;28;20042;-61
2022/11/29 02:36:11;;;;;;;1.70;1.05;;;;;;;20.79;47.03;95055.59;4970282;28;20070;-61
2022/11/29 02:38:39;;;;;;;2.35;1.13;;;;;;;20.77;46.80;95069.63;4992965;28;20062;-61
2022/11/29 02:41:24;;;;;;;2.00;1.30;;;;;;;20.72;47.12;95067.66;4991768;28;20025;-60
2022/11/29 02:44:17;;;;;;;2.08;1.30;;;;;;;20.72;47.09;95067.66;4979371;28;20036;-61
2022/11/29 02:47:20;;;;;;;2.00;1.30;;;;;;;20.71;47.13;95071.59;5005307;28;20045;-61
2022/11/29 02:50:19;;;;;;;1.60;1.25;;;;;;;20.55;47.14;95041.69;5004428;28;20053;-60
2022/11/29 02:53:05;;;;;;;1.65;0.85;;;;;;;20.70;47.05;95063.94;4976281;28;20057;-63
2022/11/29 02:55:39;;;;;;;1.70;1.08;;;;;;;20.70;46.83;95061.25;5005364;28;20062;-60
2022/11/29 02:58:07;;;;;;;2.15;1.10;;;;;;;20.71;46.86;95065.44;5004365;28;20042;-61
2022/11/29 03:00:33;;;;;;;1.77;1.10;;;;;;;19.59;46.91;94892.53;5004016;28;20042;-61
2022/11/29 03:03:02;;;;;;;1.98;1.20;;;;;;;20.75;46.55;95071.38;4970678;28;20858;-61
2022/11/29 03:05:50;;;;;;;1.60;1.10;;;;;;;20.77;46.77;95085.19;4984578;28;20846;-61
2022/11/29 03:08:15;;;;;;;2.00;1.50;;;;;;;20.73;46.83;95071.13;4982699;28;20042;-60
2022/11/29 03:11:17;;;;;;;2.10;1.10;;;;;;;20.70;46.80;95063.94;4984031;28;20038;-60
2022/11/29 03:13:55;;;;;;;1.48;1.00;;;;;;;20.71;46.79;95070.88;4980634;28;20045;-61
2022/11/29 03:16:47;;;;;;;1.70;1.00;;;;;;;20.71;46.83;95079.00;5004315;28;20050;-60
2022/11/29 03:19:12;;;;;;;1.52;0.98;;;;;;;20.68;47.24;95077.28;4999331;28;20058;-62
2022/11/29 03:21:58;;;;;;;1.58;1.10;;;;;;;20.68;47.05;95071.84;5003990;28;20126;-61
2022/11/29 03:24:44;;;;;;;1.73;1.10;;;;;;;18.58;46.76;94757.75;5003840;28;20137;-59
2022/11/29 03:27:16;;;;;;;1.58;0.90;;;;;;;20.35;46.92;95033.00;4980312;28;20199;-60
2022/11/29 03:29:46;;;;;;;1.67;1.15;;;;;;;20.66;46.88;95079.72;4985549;28;20053;-61
2022/11/29 03:32:35;;;;;;;1.73;0.93;;;;;;;20.66;46.85;95082.44;4985309;28;20050;-61
2022/11/29 03:35:15;;;;;;;1.60;1.17;;;;;;;20.70;46.69;95082.94;5001630;28;20153;-62
2022/11/29 03:37:50;;;;;;;1.92;1.25;;;;;;;20.73;46.56;95081.97;4964855;28;20060;-60
2022/11/29 03:40:18;;;;;;;1.90;1.23;;;;;;;20.57;46.71;95060.94;5004318;28;20112;-60
2022/11/29 03:43:02;;;;;;;1.50;1.00;;;;;;;20.68;46.75;95080.00;4972731;28;20030;-60
2022/11/29 03:45:43;;;;;;;2.30;1.25;;;;;;;20.68;46.69;95077.28;5003666;28;20045;-60
2022/11/29 03:48:13;;;;;;;1.60;0.90;;;;;;;20.67;46.94;95081.19;4987671;28;20050;-61
2022/11/29 03:50:42;;;;;;;1.67;1.02;;;;;;;19.91;46.65;94967.06;4985813;28;20050;-63
2022/11/29 03:53:21;;;;;;;1.88;1.00;;;;;;;20.66;47.00;95098.72;4966764;28;20100;-61
2022/11/29 03:55:54;;;;;;;1.63;1.20;;;;;;;20.18;46.67;95015.97;4983370;28;20034;-65
2022/11/29 03:58:56;;;;;;;1.58;0.90;;;;;;;20.62;46.78;95079.19;4996481;28;20160;-60
2022/11/29 04:01:54;;;;;;;1.40;0.88;;;;;;;20.63;46.77;95077.97;4985429;28;20339;-61
2022/11/29 04:04:44;;;;;;;1.85;1.00;;;;;;;20.62;46.76;95096.22;4994035;28;20061;-61
2022/11/29 04:07:28;;;;;;;;;;;;;;;20.62;46.86;95073.78;4998738;28;20041;-60
2022/11/29 04:10:18;;;;;;;1.63;1.00;;;;;;;20.67;46.84;95070.31;4998166;28;20409;-60
2022/11/29 04:13:12;;;;;;;1.25;0.90;;;;;;;20.68;46.55;95078.00;4985365;28;20076;-61
2022/11/29 04:15:37;;;;;;;1.20;0.80;;;;;;;20.00;46.70;94981.88;4969508;28;20038;-60
2022/11/29 04:18:11;;;;;;;1.63;0.93;;;;;;;20.65;46.73;95078.22;5003501;28;20049;-60
2022/11/29 04:20:52;;;;;;;1.50;0.90;;;;;;;20.62;46.65;95085.34;5003503;28;20050;-60
2022/11/29 04:23:23;;;;;;;1.17;0.70;;;;;;;20.60;47.02;95087.09;5003765;28;20156;-61
2022/11/29 04:26:21;;;;;;;1.42;1.00;;;;;;;20.51;46.96;95079.19;4997936;28;20071;-60
2022/11/29 04:29:12;;;;;;;1.30;1.00;;;;;;;20.45;46.56;95070.28;4988149;28;20057;-62
2022/11/29 04:31:47;;;;;;;1.83;0.98;;;;;;;20.55;46.60;95096.69;4984762;28;20034;-60
2022/11/29 04:34:33;;;;;;;1.42;0.88;;;;;;;20.57;46.87;95093.50;4998506;28;20148;-60
2022/11/29 04:37:23;;;;;;;1.30;0.80;;;;;;;20.57;46.77;95088.06;5002353;28;20446;-60
2022/11/29 04:40:19;;;;;;;1.52;0.93;;;;;;;20.57;46.56;95088.06;5003884;28;20518;-60
2022/11/29 04:42:51;;;;;;;1.50;1.05;;;;;;;19.25;46.45;94879.34;5006412;28;20053;-61
2022/11/29 04:45:34;;;;;;;1.35;0.90;;;;;;;20.62;46.33;95079.19;5004463;28;20046;-62
2022/11/29 04:48:15;;;;;;;1.65;0.98;;;;;;;20.63;46.57;95083.41;4973324;28;20107;-61
2022/11/29 04:50:49;;;;;;;1.67;0.90;;;;;;;19.99;46.48;94989.78;4954353;28;20140;-60
2022/11/29 04:53:20;;;;;;;1.40;0.90;;;;;;;20.15;46.58;95020.38;4987201;28;20562;-61
2022/11/29 04:56:01;;;;;;;1.55;0.95;;;;;;;20.60;46.52;95087.09;5006980;28;20419;-62
2022/11/29 04:58:49;;;;;;;1.67;0.90;;;;;;;20.57;47.07;95136.91;4961671;28;20038;-61
2022/11/29 05:01:26;;;;;;;1.65;0.90;;;;;;;20.56;46.67;95086.59;4972494;28;20440;-59
2022/11/29 05:04:01;;;;;;;1.33;0.70;;;;;;;20.55;46.71;95075.00;5002492;28;20828;-62
2022/11/29 05:07:04;;;;;;;1.63;0.95;;;;;;;20.64;46.76;95072.06;4998710;28;20136;-62
2022/11/29 05:09:46;;;;;;;1.73;0.80;;;;;;;20.75;46.73;95082.22;4952514;28;20034;-62
2022/11/29 05:12:15;;;;;;;2.22;0.80;;;;;;;20.74;46.70;95056.31;5005112;28;20152;-62
2022/11/29 05:14:48;;;;;;;2.03;0.80;;;;;;;20.19;46.75;94955.81;4987748;28;20042;-61
2022/11/29 05:17:28;;;;;;;1.00;0.70;;;;;;;21.20;46.39;95079.81;4986050;28;20053;-62
2022/11/29 05:20:14;;;;;;;1.52;0.80;;;;;;;21.20;46.43;95068.97;5001107;28;20044;-61
2022/11/29 05:22:51;;;;;;;2.03;0.80;;;;;;;21.48;46.11;95083.31;4981913;28;20156;-61
2022/11/29 05:25:32;;;;;;;1.27;0.88;;;;;;;21.57;45.95;95077.63;4980862;28;20531;-61
2022/11/29 05:28:19;;;;;;;1.30;0.80;;;;;;;21.74;45.45;95072.91;4987079;28;20042;-61
2022/11/29 05:30:56;;;;;;;1.90;0.73;;;;;;;21.84;44.75;95082.28;4961624;28;20141;-62
2022/11/29 05:33:58;;;;;;;1.73;0.98;;;;;;;21.90;44.82;95080.28;5003615;28;20569;-61
2022/11/29 05:36:29;;;;;;;1.85;1.00;;;;;;;21.92;44.70;95083.25;4984072;28;20046;-58
2022/11/29 05:39:32;;;;;;;1.13;0.80;;;;;;;21.88;45.05;95082.78;5001470;28;20045;-59
2022/11/29 05:42:07;;;;;;;3.22;0.98;;;;;;;22.03;44.52;95095.59;4976192;28;20133;-62
2022/11/29 05:44:34;;;;;;;1.75;0.93;;;;;;;22.15;44.29;95086.16;4985070;28;20061;-60
2022/11/29 05:47:01;;;;;;;0.80;0.57;;;;;;;22.23;44.59;95089.88;4986589;28;20548;-60
2022/11/29 05:49:34;;;;;;;2.50;0.90;;;;;;;22.39;44.05;95099.97;5005181;28;20154;-61
2022/11/29 05:52:18;;;;;;;1.17;0.90;;;;;;;22.54;43.93;95111.28;4987005;28;20052;-60
2022/11/29 05:55:02;;;;;;;1.75;0.90;;;;;;;22.57;44.00;95088.50;4973066;28;20046;-61
2022/11/29 05:57:30;;;;;;;1.58;0.90;;;;;;;22.70;44.09;95091.41;4992059;28;20058;-62
2022/11/29 05:59:56;;;;;;;1.15;0.60;;;;;;;22.68;43.52;95104.78;5004906;28;20046;-62
2022/11/29 06:03:02;;;;;;;1.30;0.80;;;;;;;22.76;42.93;95089.41;4983486;28;20593;-61
2022/11/29 06:05:30;;;;;;;1.20;0.60;;;;;;;22.88;42.70;95086.88;4969874;28;20045;-61
2022/11/29 06:08:04;;;;;;;1.25;0.80;;;;;;;22.89;42.60;95087.59;4985051;28;20033;-61
2022/11/29 06:10:34;;;;;;;1.55;0.90;;;;;;;22.92;42.72;95081.88;4982880;28;20488;-61
2022/11/29 06:13:17;;;;;;;1.75;0.73;;;;;;;22.92;43.17;95081.88;4967223;28;20052;-60
2022/11/29 06:16:05;;;;;;;1.48;0.90;;;;;;;22.99;42.70;95092.25;4965939;28;20100;-60
2022/11/29 06:18:39;;;;;;;1.95;0.70;;;;;;;22.98;42.55;95090.03;4979044;28;20042;-62
2022/11/29 06:21:17;;;;;;;1.70;1.02;;;;;;;22.49;42.00;94990.31;5002618;28;20053;-62
2022/11/29 06:23:47;;;;;;;1.05;0.63;;;;;;;23.09;41.96;95101.63;4979451;28;20147;-64
2022/11/29 06:26:46;;;;;;;5.18;0.90;;;;;;;23.18;41.55;95093.13;4995637;28;20029;-63
2022/11/29 06:29:24;;;;;;;3.45;0.77;;;;;;;23.33;41.81;95098.94;4963202;28;20128;-64
2022/11/29 06:31:54;;;;;;;1.65;0.80;;;;;;;23.44;40.98;95088.00;5000992;28;20501;-64
2022/11/29 06:34:43;;;;;;;2.17;0.70;;;;;;;23.29;41.18;95067.78;4984030;28;20089;-63
2022/11/29 06:37:30;;;;;;;2.33;0.80;;;;;;;23.31;41.46;95087.84;4951833;28;20058;-63
2022/11/29 06:39:56;;;;;;;3.63;0.77;;;;;;;23.18;41.52;95086.94;4954683;28;20084;-65
2022/11/29 06:42:21;;;;;;;1.52;0.77;;;;;;;23.09;41.27;95066.22;5002016;28;20058;-63
2022/11/29 06:44:47;;;;;;;2.85;0.80;;;;;;;23.41;40.98;95089.72;4967621;28;20302;-63
2022/11/29 06:47:16;;;;;;;2.33;0.80;;;;;;;23.32;41.16;95092.03;5004280;28;20030;-63
2022/11/29 06:49:48;;;;;;;1.65;0.90;;;;;;;23.31;41.11;95089.81;4987836;28;20029;-64
2022/11/29 06:52:23;;;;;;;1.55;0.60;;;;;;;23.47;41.01;95092.44;4966343;28;20081;-66
2022/11/29 06:55:07;;;;;;;1.02;0.68;;;;;;;23.69;41.08;95092.25;5003151;28;20042;-65
2022/11/29 06:57:42;;;;;;;2.10;0.70;;;;;;;23.62;40.72;95103.72;5003007;28;20053;-67
2022/11/29 07:00:19;;;;;;;2.45;0.80;;;;;;;23.09;41.31;95058.03;4970233;28;20058;-66
2022/11/29 07:02:57;;;;;;;1.33;0.80;;;;;;;23.47;41.32;95095.88;4983054;28;20041;-63
2022/11/29 07:05:32;;;;;;;1.45;0.60;;;;;;;23.86;40.79;95095.59;5001626;28;20033;-63
2022/11/29 07:08:13;;;;;;;1.40;0.70;;;;;;;23.86;40.31;95097.06;5000666;28;20049;-63
2022/11/29 07:10:39;;;;;;;2.25;0.70;;;;;;;23.35;39.96;94987.47;4986679;28;20161;-63
2022/11/29 07:13:05;;;;;;;3.08;0.60;;;;;;;23.41;40.11;94988.16;5004159;28;20046;-62
2022/11/29 07:15:31;;;;;;;1.67;0.73;;;;;;;23.70;39.71;95023.59;5003544;28;20046;-63
2022/11/29 07:17:59;;;;;;;1.80;0.82;;;;;;;24.36;39.73;95100.03;5004112;28;20060;-62
2022/11/29 07:20:27;;;;;;;1.55;0.70;;;;;;;24.55;39.54;95100.81;4982397;28;20034;-63
2022/11/29 07:23:02;;;;;;;2.13;0.80;;;;;;;23.64;39.97;94973.09;4995483;28;20065;-62
2022/11/29 07:25:30;;;;;;;3.72;1.13;;;;;;;24.53;40.34;95108.78;4968244;28;20065;-64
2022/11/29 07:28:29;;;;;;;2.08;0.82;;;;;;;24.41;40.40;95107.44;4974682;28;20050;-65
2022/11/29 07:30:55;;;;;;;2.43;0.90;;;;;;;24.47;40.65;95110.84;4993304;28;20747;-64
2022/11/29 07:33:40;;;;;;;2.20;0.70;;;;;;;24.44;40.64;95117.34;4994428;28;20141;-65
2022/11/29 07:36:21;;;;;;;2.15;0.93;;;;;;;24.40;40.52;95114.88;4998667;28;20045;-61
2022/11/29 07:39:06;;;;;;;1.58;0.65;;;;;;;23.80;40.37;95013.09;4980206;28;20502;-63
2022/11/29 07:42:15;;;;;;;3.70;1.10;;;;;;;24.31;40.73;95103.53;4966780;28;20046;-63
2022/11/29 07:44:50;;;;;;;2.83;1.00;;;;;;;23.72;40.70;95009.44;4983029;28;20049;-63
2022/11/29 07:47:15;;;;;;;2.70;1.13;;;;;;;24.30;40.37;95096.59;5001371;28;20045;-62
2022/11/29 07:49:41;;;;;;;2.33;1.00;;;;;;;23.70;40.28;95023.59;5003648;28;20030;-65
2022/11/29 07:52:12;;;;;;;2.47;1.13;;;;;;;23.56;40.47;95019.22;4999624;28;20053;-63
2022/11/29 07:54:37;;;;;;;1.98;0.93;;;;;;;24.15;40.42;95107.19;4964147;28;20053;-62
2022/11/29 07:57:03;;;;;;;3.15;1.30;;;;;;;23.36;40.44;95005.28;4984542;28;20385;-65
2022/11/29 07:59:28;;;;;;;2.80;1.00;;;;;;;23.61;39.97;95042.25;5002326;28;20257;-63
2022/11/29 08:01:54;;;;;;;3.38;1.25;;;;;;;23.90;40.51;95108.44;4966412;28;20038;-66
2022/11/29 08:04:19;;;;;;;1.88;0.82;;;;;;;23.94;40.68;95114.31;4958250;28;20050;-63
2022/11/29 08:06:45;;;;;;;2.20;1.05;;;;;;;23.71;40.43;95076.16;4979164;28;20053;-63
2022/11/29 08:09:10;;;;;;;1.85;0.85;;;;;;;23.68;40.62;95079.88;4983160;28;20046;-65
2022/11/29 08:11:36;;;;;;;1.90;1.25;;;;;;;23.89;40.82;95112.41;4967911;28;20042;-63
2022/11/29 08:14:02;;;;;;;1.85;0.90;;;;;;;23.83;41.08;95102.06;4985858;28;20103;-63
2022/11/29 08:16:28;;;;;;;3.67;1.20;;;;;;;23.50;40.60;95064.16;4973141;28;20103;-64
2022/11/29 08:18:53;;;;;;;2.20;1.08;;;;;;;23.80;40.22;95114.00;4981258;28;20434;-63
2022/11/29 08:21:19;;;;;;;1.58;1.00;;;;;;;23.75;40.44;95133.84;5007545;28;20081;-64
2022/11/29 08:23:44;;;;;;;2.78;1.33;;;;;;;23.60;40.56;95095.28;5005733;28;20042;-63
2022/11/29 08:26:10;;;;;;;1.92;1.00;;;;;;;23.07;40.59;95027.81;4970549;28;20454;-64
2022/11/29 08:28:36;;;;;;;2.10;0.98;;;;;;;23.62;40.68;95114.63;5006694;28;20058;-63
2022/11/29 08:31:06;;;;;;;2.53;1.05;;;;;;;23.63;40.62;95111.38;5005509;28;20061;-64
2022/11/29 08:33:34;;;;;;;3.00;1.27;;;;;;;23.65;40.55;95117.09;4981256;28;20362;-62
2022/11/29 08:36:07;;;;;;;1.98;0.90;;;;;;;23.62;40.45;95122.78;5003449;28;20233;-63
2022/11/29 08:38:32;;;;;;;2.58;0.80;;;;;;;23.52;41.02;95111.44;4987395;28;20446;-63
2022/11/29 08:41:01;;;;;;;1.92;0.90;;;;;;;22.92;40.95;95016.50;4972374;28;20041;-63
2022/11/29 08:43:28;;;;;;;2.05;1.00;;;;;;;23.55;40.75;95136.97;4987921;28;20049;-63
2022/11/29 08:45:53;;;;;;;2.92;1.20;;;;;;;23.38;41.12;95106.38;4985572;28;20054;-63
2022/11/29 08:48:19;;;;;;;3.10;1.05;;;;;;;23.39;40.91;95107.84;4982262;28;20038;-63
2022/11/29 08:50:44;;;;;;;3.08;1.20;;;;;;;23.37;41.29;95125.97;5002803;28;20054;-63
2022/11/29 08:55:58;;;;;;;3.13;1.15;;;;;;;23.28;41.23;95107.91;5004904;28;20052;-64
2022/11/29 08:58:24;;;;;;;2.45;1.23;;;;;;;23.26;41.39;95099.53;5001633;28;20537;-63
2022/11/29 09:00:50;;;;;;;2.65;1.10;;;;;;;23.41;40.84;95116.25;5003168;28;20049;-64
2022/11/29 09:06:04;;;;;;;2.63;1.20;;;;;;;23.37;41.10;95110.34;5002376;28;20048;-63
2022/11/29 09:08:31;;;;;;;2.33;0.80;;;;;;;22.54;41.22;94991.53;5004060;28;20056;-63
2022/11/29 09:10:56;;;;;;;3.00;0.90;;;;;;;23.29;41.04;95114.09;4986722;28;20415;-64
2022/11/29 09:13:22;;;;;;;2.60;1.00;;;;;;;23.26;41.58;95121.31;5006201;28;20180;-64
2022/11/29 09:15:47;;;;;;;2.85;1.77;;;;;;;23.15;40.93;95094.16;5005783;28;20112;-63
2022/11/29 09:18:13;;;;;;;2.55;1.10;;;;;;;23.24;41.45;95107.44;4968810;28;20038;-62
2022/11/29 09:20:41;;;;;;;2.55;0.98;;;;;;;23.26;41.33;95107.69;5005173;28;20050;-63
2022/11/29 09:23:06;;;;;;;1.85;0.95;;;;;;;23.20;41.50;95101.53;4981169;28;20052;-64
2022/11/29 09:25:32;;;;;;;2.95;1.00;;;;;;;22.37;41.95;94977.28;4984632;28;20038;-64
2022/11/29 09:27:57;;;;;;;3.47;1.13;;;;;;;22.71;43.01;95028.28;5003701;28;20509;-64
2022/11/29 09:30:23;;;;;;;3.10;1.25;;;;;;;22.76;42.77;95024.06;4984594;28;20070;-63
2022/11/29 09:32:48;;;;;;;2.85;1.20;;;;;;;23.21;43.62;95092.09;4981975;28;20120;-63
2022/11/29 09:35:14;;;;;;;2.83;1.50;;;;;;;23.10;43.10;95064.94;4994862;28;20485;-64
2022/11/29 09:37:42;;;;;;;2.20;1.00;;;;;;;23.22;43.46;95088.16;5002659;28;20430;-64
2022/11/29 09:40:14;;;;;;;2.45;0.90;;;;;;;23.24;43.10;95074.75;4970641;28;20042;-64
2022/11/29 09:43:03;;;;;;;2.08;1.20;;;;;;;23.25;42.69;95065.34;4986103;28;20069;-64
2022/11/29 09:45:31;;;;;;;2.50;1.33;;;;;;;23.20;43.19;95057.94;4986504;28;20064;-64
2022/11/29 09:48:27;;;;;;;2.22;1.10;;;;;;;23.21;42.70;95064.84;4971266;28;20070;-63
2022/11/29 09:50:53;;;;;;;3.03;1.00;;;;;;;23.27;42.63;95071.00;4983129;28;20054;-63
2022/11/29 09:53:38;;;;;;;2.13;1.00;;;;;;;23.22;42.71;95060.91;4965491;28;20513;-64
2022/11/29 09:56:15;;;;;;;1.83;1.00;;;;;;;23.18;42.74;95060.44;4984492;28;20037;-63
2022/11/29 09:58:51;;;;;;;2.25;1.33;;;;;;;23.17;42.21;95074.56;5001724;28;20049;-63
2022/11/29 10:01:40;;;;;;;2.55;1.10;;;;;;;23.14;42.14;95076.31;4981003;28;20065;-64
2022/11/29 10:04:10;;;;;;;2.05;1.00;;;;;;;21.71;42.35;94840.19;4970854;28;20037;-63
2022/11/29 10:06:39;;;;;;;2.83;1.38;;;;;;;23.12;42.53;95057.03;4981421;28;20071;-63
2022/11/29 10:09:25;;;;;;;2.92;1.10;;;;;;;23.10;42.56;95054.06;4967672;28;20804;-64
2022/11/29 10:12:07;;;;;;;3.10;1.20;;;;;;;22.40;42.38;94946.34;4977226;28;20469;-62
2022/11/29 10:14:39;;;;;;;3.50;1.30;;;;;;;22.99;42.68;95045.97;4971246;28;20050;-64
2022/11/29 10:17:29;;;;;;;3.50;1.30;;;;;;;22.94;41.81;95046.75;4978086;28;20030;-62
2022/11/29 10:19:58;;;;;;;4.70;1.20;;;;;;;23.05;41.75;95041.22;4971131;28;20438;-63
2022/11/29 10:22:41;;;;;;;3.43;1.20;;;;;;;23.17;41.89;95044.59;4979966;28;20497;-63
2022/11/29 10:25:09;;;;;;;3.08;1.23;;;;;;;23.02;42.13;95025.16;4969765;28;20464;-62
2022/11/29 10:27:34;;;;;;;2.60;1.20;;;;;;;23.06;41.88;95031.06;4986178;28;20104;-63
2022/11/29 10:30:01;;;;;;;2.22;1.10;;;;;;;23.11;42.24;95036.47;4958273;28;20088;-64
2022/11/29 10:32:29;;;;;;;2.00;1.10;;;;;;;23.07;41.97;95038.72;4983539;28;20046;-63
2022/11/29 10:34:57;;;;;;;2.42;1.20;;;;;;;22.89;42.10;95027.69;4983646;28;20193;-63
2022/11/29 10:37:22;;;;;;;2.28;1.10;;;;;;;22.95;42.12;95031.13;4952504;28;20050;-62
2022/11/29 10:39:53;;;;;;;2.95;1.13;;;;;;;22.40;42.22;94937.47;4982677;28;20050;-64
2022/11/29 10:45:18;;;;;;;2.42;1.05;;;;;;;22.95;41.81;95040.03;4976237;28;20196;-63
2022/11/29 10:47:45;;;;;;;2.53;1.05;;;;;;;22.24;41.86;94914.56;4980296;28;20129;-63
2022/11/29 10:50:18;;;;;;;1.88;1.02;;;;;;;22.90;42.10;95024.47;4964132;28;20027;-62
2022/11/29 10:52:43;;;;;;;2.40;1.00;;;;;;;23.00;42.28;95028.38;4982652;28;20041;-62
2022/11/29 10:55:12;;;;;;;2.20;1.10;;;;;;;22.92;42.09;95010.34;4982785;28;20050;-64
2022/11/29 10:57:37;;;;;;;1.80;0.90;;;;;;;22.41;41.95;94917.19;4973546;28;20412;-64
2022/11/29 11:00:08;;;;;;;1.80;1.17;;;;;;;23.07;41.92;95022.38;4970446;28;20041;-65
2022/11/29 11:02:34;;;;;;;1.70;1.17;;;;;;;22.52;41.48;94918.56;4987012;28;20038;-65
2022/11/29 11:04:59;;;;;;;2.90;1.15;;;;;;;23.33;41.77;95028.09;4954923;28;20149;-62
2022/11/29 11:07:30;;;;;;;2.47;1.10;;;;;;;23.38;41.50;95030.06;5003466;28;20506;-64
2022/11/29 11:09:56;;;;;;;4.35;1.13;;;;;;;23.48;41.05;95023.03;4970856;28;20130;-65
2022/11/29 11:12:24;;;;;;;2.85;1.10;;;;;;;23.56;41.53;95029.41;4961707;28;20046;-64
2022/11/29 11:14:50;;;;;;;3.33;1.10;;;;;;;23.59;41.39;95022.94;4983794;28;20081;-62
2022/11/29 11:17:26;;;;;;;2.58;1.20;;;;;;;23.58;41.11;95029.63;5001603;28;20036;-63
2022/11/29 11:20:04;;;;;;;2.38;1.20;;;;;;;23.67;40.79;95029.31;4970645;28;20041;-63
2022/11/29 11:22:31;;;;;;;2.25;1.10;;;;;;;22.85;40.58;94912.13;4954104;28;20037;-62
2022/11/29 11:25:02;;;;;;;3.15;1.38;;;;;;;23.64;40.33;95041.25;4970386;28;20045;-63
2022/11/29 11:27:40;;;;;;;3.00;1.20;;;;;;;23.68;40.46;95036.25;4967028;28;20088;-63
2022/11/29 11:30:27;;;;;;;2.42;1.20;;;;;;;23.64;40.75;95047.44;4986863;28;20568;-63
2022/11/29 11:33:21;;;;;;;2.25;1.17;;;;;;;23.73;40.50;95051.81;5002230;28;20078;-65
2022/11/29 11:36:15;;;;;;;2.78;1.10;;;;;;;24.05;39.92;95054.22;4984092;28;20042;-62
2022/11/29 11:38:57;;;;;;;2.95;1.20;;;;;;;23.97;40.02;95034.19;4986720;28;20042;-61
2022/11/29 11:44:33;;;;;;;1.77;1.00;;;;;;;24.23;39.95;95053.53;4960963;28;20044;-62
2022/11/29 11:46:58;;;;;;;2.10;1.13;;;;;;;24.33;39.68;95051.94;5004178;28;20494;-65
2022/11/29 11:49:28;;;;;;;2.88;1.20;;;;;;;24.24;39.93;95049.53;4969413;28;20044;-65
2022/11/29 11:51:53;;;;;;;2.25;1.08;;;;;;;24.42;39.59;95043.38;4972797;28;20048;-65
2022/11/29 11:54:19;;;;;;;2.10;1.10;;;;;;;24.56;39.15;95047.69;4988826;28;20051;-64
2022/11/29 11:56:44;;;;;;;2.80;1.10;;;;;;;24.32;38.99;95014.97;4990283;28;20033;-63
2022/11/29 11:59:23;;;;;;;3.30;1.30;;;;;;;24.44;39.05;95021.78;4971971;28;20069;-63
2022/11/29 12:01:49;;;;;;;2.33;1.00;;;;;;;24.67;39.10;95053.00;4990319;28;20034;-63
2022/11/29 12:04:23;;;;;;;2.30;1.10;;;;;;;24.68;38.64;95049.00;4989727;28;20050;-64
2022/11/29 12:06:51;;;;;;;2.25;1.20;;;;;;;24.61;38.96;95049.59;5001060;28;20307;-63
2022/11/29 12:09:35;;;;;;;2.20;1.10;;;;;;;24.75;38.63;95053.88;5004997;28;20054;-65
2022/11/29 12:12:19;;;;;;;2.55;1.20;;;;;;;24.81;38.86;95041.63;5005506;28;20026;-63
2022/11/29 12:15:02;;;;;;;2.42;1.00;;;;;;;24.82;38.77;95032.91;5006011;28;20045;-64
2022/11/29 12:18:11;;;;;;;2.80;1.30;;;;;;;24.84;38.52;95035.88;4954611;28;20047;-64
2022/11/29 12:20:50;;;;;;;3.22;1.30;;;;;;;24.96;38.37;95031.72;4967121;28;20052;-63